Time;durP1;ratioP1;P1;durP2;ratioP2;P2;SDS_P1;SDS_P2;PMS_P1;PMS_P2;Temp;Humidity;BMP_temperature;BMP_pressure;BME280_temperature;BME280_humidity;BME280_pressure;Samples;Min_cycle;Max_cycle;Signal;HPM_P1;HPM_P2
2023/02/16 00:00:49;;;;;;;175.70;64.40;;;;;;;0.32;81.72;101557.89;110933;1206;97988;-61
2023/02/16 00:03:20;;;;;;;179.40;63.40;;;;;;;0.27;81.70;101557.64;110744;1212;97649;-61
2023/02/16 00:05:46;;;;;;;176.40;65.40;;;;;;;0.24;81.73;101560.77;110858;1212;99990;-60
2023/02/16 00:08:12;;;;;;;182.20;62.10;;;;;;;0.18;81.76;101564.38;110741;1210;139249;-60
2023/02/16 00:10:38;;;;;;;170.20;61.60;;;;;;;0.16;81.84;101561.19;111116;1210;97597;-60
2023/02/16 00:16:23;;;;;;;187.00;64.30;;;;;;;0.10;81.84;101561.98;111027;1206;100461;-60
2023/02/16 00:18:50;;;;;;;178.20;62.10;;;;;;;0.06;81.84;101564.73;111003;1206;107883;-60
2023/02/16 00:21:17;;;;;;;175.50;63.30;;;;;;;0.03;81.95;101562.92;110972;1212;97635;-60
2023/02/16 00:23:43;;;;;;;169.90;58.70;;;;;;;0.01;81.91;101561.33;111033;1208;97702;-60
2023/02/16 00:26:14;;;;;;;174.10;61.80;;;;;;;-0.01;82.04;101558.34;110950;1210;138806;-60
2023/02/16 00:28:40;;;;;;;186.80;61.70;;;;;;;-0.02;81.99;101560.45;111056;1209;99821;-60
2023/02/16 00:31:06;;;;;;;181.30;61.40;;;;;;;-0.02;82.11;101554.65;111057;1206;139740;-60
2023/02/16 00:33:31;;;;;;;176.70;61.30;;;;;;;-0.03;81.99;101552.00;111060;1210;97750;-61
2023/02/16 00:35:56;;;;;;;189.70;62.10;;;;;;;-0.04;82.13;101544.77;110795;1207;97577;-61
2023/02/16 00:38:21;;;;;;;186.40;64.20;;;;;;;-0.08;81.98;101542.79;110741;1206;138719;-60
2023/02/16 00:40:47;;;;;;;187.40;64.60;;;;;;;-0.13;82.05;101539.91;110948;1210;97776;-60
2023/02/16 00:43:26;;;;;;;198.30;65.90;;;;;;;-0.16;81.94;101539.33;110844;1206;140798;-60
2023/02/16 00:45:51;;;;;;;196.00;67.30;;;;;;;-0.22;81.89;101534.15;110914;1210;111784;-60
2023/02/16 00:48:17;;;;;;;170.00;61.30;;;;;;;-0.29;81.88;101532.81;110916;1206;97597;-60
2023/02/16 00:50:42;;;;;;;178.40;62.50;;;;;;;-0.34;81.89;101534.50;110754;1211;139912;-60
2023/02/16 00:53:09;;;;;;;180.20;64.80;;;;;;;-0.39;82.05;101536.01;110889;1208;97661;-60
2023/02/16 00:55:35;;;;;;;178.80;62.90;;;;;;;-0.44;81.96;101538.39;110794;1211;140408;-60
2023/02/16 00:58:06;;;;;;;202.40;69.00;;;;;;;-0.50;82.06;101537.42;110995;1211;97696;-62
2023/02/16 01:00:54;;;;;;;196.30;68.40;;;;;;;-0.55;82.13;101538.90;110878;1206;107579;-62
2023/02/16 01:03:24;;;;;;;190.90;64.60;;;;;;;-0.63;82.13;101534.58;110840;1208;97549;-60
2023/02/16 01:11:06;;;;;;;180.10;59.70;;;;;;;-0.67;82.24;101529.77;110886;1212;97725;-60
2023/02/16 01:11:28;;;;;;;157.80;52.30;;;;;;;-0.69;82.11;101526.55;110888;1212;100836;-60
2023/02/16 01:13:55;;;;;;;163.40;56.30;;;;;;;-0.72;82.08;101523.54;110878;1206;140446;-61
2023/02/16 01:16:31;;;;;;;174.50;61.20;;;;;;;-0.74;82.19;101519.99;110911;1212;97690;-60
2023/02/16 01:18:56;;;;;;;177.40;56.80;;;;;;;-0.74;82.21;101516.65;110889;1211;138967;-61
2023/02/16 01:21:21;;;;;;;176.50;57.30;;;;;;;-0.75;82.19;101514.54;110868;1206;97600;-60
2023/02/16 01:23:46;;;;;;;189.60;60.50;;;;;;;-0.74;82.31;101514.03;111051;1206;97563;-61
2023/02/16 01:26:17;;;;;;;171.40;60.60;;;;;;;-0.75;82.30;101515.23;110787;1211;138781;-61
2023/02/16 01:28:44;;;;;;;178.00;63.00;;;;;;;-0.77;82.19;101513.10;110994;1224;97633;-61
2023/02/16 01:31:10;;;;;;;176.60;56.30;;;;;;;-0.78;82.47;101506.41;111047;1208;140858;-61
2023/02/16 01:33:36;;;;;;;172.50;59.40;;;;;;;-0.79;82.47;101501.84;110864;1208;96885;-61
2023/02/16 01:36:03;;;;;;;180.20;57.30;;;;;;;-0.78;82.43;101496.95;110912;1208;97807;-61
2023/02/16 01:38:29;;;;;;;177.10;55.60;;;;;;;-0.77;82.51;101500.28;110779;1212;139562;-61
2023/02/16 01:41:05;;;;;;;185.00;59.30;;;;;;;-0.77;82.43;101497.13;110853;1208;98839;-60
2023/02/16 01:43:50;;;;;;;164.40;53.30;;;;;;;-0.76;82.44;101494.33;110766;1211;140181;-60
2023/02/16 01:46:22;;;;;;;159.40;56.10;;;;;;;-0.76;82.69;101491.70;110907;1206;108270;-61
2023/02/16 01:48:47;;;;;;;168.20;55.00;;;;;;;-0.76;82.59;101490.46;110910;1206;97565;-61
2023/02/16 01:51:36;;;;;;;161.80;53.20;;;;;;;-0.77;82.46;101488.35;110850;1211;139728;-60
2023/02/16 01:54:04;;;;;;;172.60;56.60;;;;;;;-0.80;82.60;101487.61;110946;1210;111574;-60
2023/02/16 01:56:44;;;;;;;164.20;53.50;;;;;;;-0.82;82.36;101482.13;110803;1206;140949;-62
2023/02/16 01:59:40;;;;;;;165.60;55.10;;;;;;;-0.84;82.60;101485.60;110914;1209;107803;-62
2023/02/16 02:02:35;;;;;;;174.90;57.20;;;;;;;-0.85;82.71;101481.02;110898;1209;141087;-62
2023/02/16 02:05:35;;;;;;;161.30;55.80;;;;;;;-0.85;82.66;101481.39;110917;1211;97815;-59
2023/02/16 02:08:00;;;;;;;172.30;54.40;;;;;;;-0.86;82.67;101474.52;110820;1209;140343;-60
2023/02/16 02:11:03;;;;;;;161.10;53.70;;;;;;;-0.86;82.90;101473.98;110906;1206;97568;-60
2023/02/16 02:13:40;;;;;;;183.10;58.60;;;;;;;-0.86;82.78;101467.15;110772;1206;141469;-60
2023/02/16 02:16:06;;;;;;;175.20;54.60;;;;;;;-0.86;82.79;101462.93;110928;1211;97573;-59
2023/02/16 02:18:32;;;;;;;166.70;53.20;;;;;;;-0.89;82.74;101459.21;110890;1208;97461;-60
2023/02/16 02:24:18;;;;;;;171.20;54.50;;;;;;;-0.94;82.68;101460.52;110959;1206;106224;-60
2023/02/16 02:27:21;;;;;;;176.80;55.80;;;;;;;-0.97;82.62;101462.05;110800;1206;140326;-61
2023/02/16 02:30:07;;;;;;;164.10;54.50;;;;;;;-1.00;82.65;101460.96;110931;1206;97415;-60
2023/02/16 02:32:41;;;;;;;147.80;51.40;;;;;;;-1.02;82.72;101463.21;110751;1206;139028;-60
2023/02/16 02:35:31;;;;;;;164.90;51.30;;;;;;;-1.04;82.71;101468.61;110922;1211;99990;-60
2023/02/16 02:38:01;;;;;;;158.40;54.20;;;;;;;-1.06;82.77;101470.34;110750;1208;140767;-60
2023/02/16 02:40:59;;;;;;;161.60;51.90;;;;;;;-1.07;82.73;101465.58;110847;1208;101032;-60
2023/02/16 02:43:50;;;;;;;162.20;53.00;;;;;;;-1.08;83.01;101463.63;110725;1222;140032;-60
2023/02/16 02:46:25;;;;;;;145.30;49.60;;;;;;;-1.07;82.90;101458.90;110897;1206;111571;-61
2023/02/16 02:48:50;;;;;;;155.80;50.20;;;;;;;-1.07;82.82;101457.86;110996;1206;100604;-61
2023/02/16 02:51:28;;;;;;;139.60;48.00;;;;;;;-1.08;82.87;101461.36;110748;1208;140327;-60
2023/02/16 03:02:22;;;;;;;130.10;42.30;;;;;;;-1.05;83.00;101461.05;110865;1206;141147;-62
2023/02/16 03:04:48;;;;;;;134.90;42.50;;;;;;;-1.05;82.96;101458.23;110936;1206;107260;-60
2023/02/16 03:07:14;;;;;;;127.00;41.60;;;;;;;-1.05;83.04;101460.35;110906;1206;140735;-60
2023/02/16 03:09:39;;;;;;;133.60;43.00;;;;;;;-1.04;83.07;101453.17;111076;1206;97868;-60
2023/02/16 03:14:55;;;;;;;121.10;40.80;;;;;;;-1.05;83.18;101451.77;110858;1208;138944;-60
2023/02/16 03:31:31;;;;;;;107.20;36.40;;;;;;;-1.01;83.11;101460.77;110741;1208;140794;-60
2023/02/16 03:33:57;;;;;;;;;;;;;;;-1.01;83.12;101461.46;110982;1211;97560;-60
2023/02/16 03:36:25;;;;;;;103.40;33.40;;;;;;;-1.01;83.27;101464.11;110809;1207;97603;-60
2023/02/16 03:38:53;;;;;;;110.50;37.40;;;;;;;-0.99;83.18;101469.04;110861;1206;140740;-60
2023/02/16 03:41:18;;;;;;;109.60;35.00;;;;;;;-1.00;83.32;101473.77;110918;1206;98139;-60
2023/02/16 03:43:44;;;;;;;112.90;34.90;;;;;;;-0.99;83.41;101465.88;110859;1208;139254;-60
2023/02/16 03:46:09;;;;;;;106.50;35.30;;;;;;;-0.99;83.37;101465.89;110870;1207;109715;-60
2023/02/16 03:48:34;;;;;;;107.70;33.00;;;;;;;-0.98;83.10;101461.52;110873;1208;97677;-61
2023/02/16 03:50:59;;;;;;;103.40;33.60;;;;;;;-0.96;83.38;101460.66;110877;1206;138727;-60
2023/02/16 03:53:25;;;;;;;106.90;34.90;;;;;;;-0.96;83.22;101457.86;110841;1211;97626;-61
2023/02/16 03:55:50;;;;;;;104.90;33.90;;;;;;;-0.95;83.42;101458.40;110842;1208;138956;-60
2023/02/16 03:58:21;;;;;;;105.90;34.20;;;;;;;-0.95;83.38;101458.23;110891;1211;97665;-60
2023/02/16 04:00:46;;;;;;;;;;;;;;;-0.92;83.35;101454.77;110913;1223;97569;-60
2023/02/16 04:03:12;;;;;;;107.50;35.50;;;;;;;-0.93;83.45;101452.82;110865;1206;124868;-60
2023/02/16 04:05:38;;;;;;;100.20;33.30;;;;;;;-0.93;83.60;101454.23;110980;1206;97664;-61
2023/02/16 04:08:05;;;;;;;99.70;34.60;;;;;;;-0.92;83.44;101453.02;110794;1208;140741;-60
2023/02/16 04:10:30;;;;;;;98.00;32.60;;;;;;;-0.91;83.49;101450.40;110837;1210;97651;-60
2023/02/16 04:12:55;;;;;;;101.50;33.80;;;;;;;-0.92;83.47;101450.04;110785;1208;140382;-60
2023/02/16 04:15:25;;;;;;;107.60;34.90;;;;;;;-0.93;83.49;101448.97;110876;1206;99801;-60
2023/02/16 04:17:51;;;;;;;113.50;36.10;;;;;;;-0.94;83.60;101444.56;110912;1211;107818;-61
2023/02/16 04:20:19;;;;;;;101.10;33.00;;;;;;;-0.95;83.55;101440.86;110948;1211;140646;-61
2023/02/16 04:22:45;;;;;;;98.30;33.70;;;;;;;-0.96;83.54;101441.73;110915;1208;96146;-60
2023/02/16 04:25:11;;;;;;;98.40;33.10;;;;;;;-0.97;83.38;101433.11;110891;1210;139330;-60
2023/02/16 04:27:37;;;;;;;86.50;31.20;;;;;;;-0.97;83.42;101435.04;110981;1206;97591;-60
2023/02/16 04:30:05;;;;;;;100.30;35.20;;;;;;;-0.99;83.47;101439.41;110895;1206;97226;-61
2023/02/16 04:32:30;;;;;;;107.00;35.40;;;;;;;-0.99;83.52;101433.96;110885;1210;139253;-60
2023/02/16 04:34:55;;;;;;;98.40;35.10;;;;;;;-0.99;83.51;101433.96;110992;1215;97719;-61
2023/02/16 04:37:21;;;;;;;107.60;34.50;;;;;;;-0.99;83.49;101430.80;110962;1206;138912;-60
2023/02/16 04:39:46;;;;;;;115.20;35.40;;;;;;;-0.99;83.70;101426.94;110979;1206;97616;-60
2023/02/16 04:42:11;;;;;;;96.10;32.70;;;;;;;-1.00;83.58;101422.90;110963;1211;98019;-60
2023/02/16 04:44:37;;;;;;;113.30;35.00;;;;;;;-1.00;83.73;101424.48;110735;1206;140230;-61
2023/02/16 04:47:02;;;;;;;101.50;33.00;;;;;;;-1.00;83.59;101426.05;110893;1206;97626;-60
2023/02/16 04:49:28;;;;;;;107.20;34.60;;;;;;;-1.01;83.59;101426.21;110869;1210;140644;-61
2023/02/16 04:51:53;;;;;;;111.70;36.30;;;;;;;-1.02;83.73;101427.25;110938;1206;97932;-62
2023/02/16 04:54:18;;;;;;;105.20;34.80;;;;;;;-1.04;83.63;101428.63;110929;1222;97690;-60
2023/02/16 04:56:45;;;;;;;88.50;30.70;;;;;;;-1.05;83.75;101425.44;110813;1206;138897;-60
2023/02/16 04:59:11;;;;;;;105.90;34.00;;;;;;;-1.05;83.69;101419.66;110927;1210;97751;-60
2023/02/16 05:01:37;;;;;;;114.90;36.50;;;;;;;-1.06;83.60;101416.83;110833;1212;140585;-60
2023/02/16 05:04:02;;;;;;;96.60;34.30;;;;;;;-1.08;83.71;101420.32;110997;1212;97717;-60
2023/02/16 05:06:27;;;;;;;110.50;33.80;;;;;;;-1.08;83.71;101410.66;110882;1206;97549;-61
2023/02/16 05:08:53;;;;;;;101.20;33.70;;;;;;;-1.07;83.73;101408.05;110807;1211;139893;-62
2023/02/16 05:16:46;;;;;;;103.80;34.90;;;;;;;-1.07;83.74;101422.95;110962;1209;97591;-60
2023/02/16 05:19:11;;;;;;;110.20;35.00;;;;;;;-1.07;83.75;101425.40;110846;1211;139104;-62
2023/02/16 05:21:37;;;;;;;101.00;32.10;;;;;;;-1.07;83.85;101427.34;110916;1211;97661;-62
2023/02/16 05:24:06;;;;;;;101.80;32.90;;;;;;;-1.09;83.76;101432.75;110996;1217;97801;-62
2023/02/16 05:26:32;;;;;;;113.50;37.10;;;;;;;-1.12;83.74;101430.23;110865;1212;139887;-60
2023/02/16 05:28:58;;;;;;;103.10;34.90;;;;;;;-1.11;83.86;101428.48;110949;1206;97604;-60
2023/02/16 05:31:24;;;;;;;114.20;37.10;;;;;;;-1.11;84.09;101430.61;110839;1211;139250;-60
2023/02/16 05:33:50;;;;;;;94.30;34.00;;;;;;;-1.11;83.85;101430.42;110863;1211;108111;-62
2023/02/16 05:36:16;;;;;;;105.70;35.30;;;;;;;-1.12;83.93;101423.76;110960;1206;97578;-60
2023/02/16 05:38:41;;;;;;;105.90;34.70;;;;;;;-1.13;83.99;101424.09;110742;1212;140897;-60
2023/02/16 05:41:06;;;;;;;100.80;33.80;;;;;;;-1.15;83.96;101426.86;110829;1212;97634;-60
2023/02/16 05:43:32;;;;;;;109.60;36.50;;;;;;;-1.16;83.78;101430.34;110796;1212;140064;-61
2023/02/16 05:45:57;;;;;;;107.70;35.90;;;;;;;-1.18;83.81;101434.86;110932;1211;98121;-61
2023/02/16 05:48:23;;;;;;;110.10;37.30;;;;;;;-1.19;83.93;101434.52;110971;1211;97634;-61
2023/02/16 05:50:48;;;;;;;106.80;35.60;;;;;;;-1.20;83.66;101432.38;110987;1206;139514;-61
2023/02/16 05:53:14;;;;;;;123.90;38.60;;;;;;;-1.21;84.25;101433.23;110954;1211;97743;-61
2023/02/16 05:55:40;;;;;;;108.30;34.00;;;;;;;-1.22;84.26;101435.32;110938;1206;139071;-61
2023/02/16 05:58:05;;;;;;;102.40;33.90;;;;;;;-1.23;84.05;101435.48;110964;1209;100103;-61
2023/02/16 06:00:32;;;;;;;115.10;35.50;;;;;;;-1.23;84.19;101438.82;110839;1206;97690;-61
2023/02/16 06:02:58;;;;;;;113.60;36.80;;;;;;;-1.23;84.02;101434.45;110719;1212;138854;-60
2023/02/16 06:05:25;;;;;;;105.50;35.30;;;;;;;-1.22;84.13;101437.08;111098;1210;96127;-61
2023/02/16 06:07:50;;;;;;;100.10;35.00;;;;;;;-1.21;84.19;101438.33;110872;1212;139384;-61
2023/02/16 06:10:16;;;;;;;109.40;35.30;;;;;;;-1.21;84.16;101432.17;110895;1206;97654;-61
2023/02/16 06:12:41;;;;;;;104.40;35.50;;;;;;;-1.22;84.15;101433.94;110920;1211;98576;-61
2023/02/16 06:15:07;;;;;;;102.50;33.20;;;;;;;-1.21;84.19;101431.85;110791;1212;139401;-61
2023/02/16 06:17:33;;;;;;;116.40;37.00;;;;;;;-1.20;84.28;101430.98;110896;1212;97785;-61
2023/02/16 06:19:58;;;;;;;99.50;34.30;;;;;;;-1.19;84.20;101437.13;110728;1211;139133;-61
2023/02/16 06:22:23;;;;;;;114.20;35.40;;;;;;;-1.18;84.33;101438.55;110990;1207;97668;-61
2023/02/16 06:24:48;;;;;;;99.40;33.70;;;;;;;-1.17;84.48;101439.63;111132;1211;97679;-61
2023/02/16 06:27:14;;;;;;;104.70;34.40;;;;;;;-1.15;84.32;101440.37;110897;1206;138479;-61
2023/02/16 06:29:39;;;;;;;104.30;34.70;;;;;;;-1.12;84.23;101436.02;110881;1212;97675;-61
2023/02/16 06:32:04;;;;;;;96.90;33.00;;;;;;;-1.11;84.45;101439.03;110806;1211;139417;-61
2023/02/16 06:34:30;;;;;;;109.30;34.50;;;;;;;-1.08;84.40;101440.14;110971;1212;97687;-61
2023/02/16 06:36:55;;;;;;;107.10;34.70;;;;;;;-1.06;84.55;101443.48;110957;1206;139584;-60
2023/02/16 06:39:20;;;;;;;110.20;34.40;;;;;;;-1.03;84.41;101440.73;110968;1206;97769;-61
2023/02/16 06:41:45;;;;;;;104.80;31.90;;;;;;;-1.02;84.39;101436.89;111058;1206;97704;-61
2023/02/16 06:44:14;;;;;;;100.50;32.50;;;;;;;-1.00;84.38;101436.59;110745;1206;140454;-61
2023/02/16 06:46:43;;;;;;;106.90;33.80;;;;;;;-0.97;84.38;101436.09;110847;1206;97706;-61
2023/02/16 06:49:17;;;;;;;97.50;32.60;;;;;;;-0.96;84.54;101437.33;110773;1206;139500;-61
2023/02/16 06:51:43;;;;;;;103.20;35.80;;;;;;;-0.94;84.72;101428.24;110948;1210;115461;-61
2023/02/16 06:54:09;;;;;;;101.50;31.80;;;;;;;-0.92;84.57;101423.02;110975;1212;97599;-61
2023/02/16 06:56:35;;;;;;;102.90;33.40;;;;;;;-0.88;84.62;101419.04;110709;1215;140714;-61
2023/02/16 06:59:01;;;;;;;95.40;32.30;;;;;;;-0.85;84.69;101423.14;110946;1206;98109;-60
2023/02/16 07:01:26;;;;;;;108.20;34.50;;;;;;;-0.81;84.85;101426.00;110776;1206;140963;-60
2023/02/16 07:03:53;;;;;;;104.90;35.30;;;;;;;-0.78;84.53;101417.09;110914;1212;97728;-60
2023/02/16 07:06:20;;;;;;;98.40;33.90;;;;;;;-0.75;84.78;101418.55;110889;1206;98322;-60
2023/02/16 07:08:46;;;;;;;105.00;36.80;;;;;;;-0.72;84.77;101415.25;110823;1206;139594;-60
2023/02/16 07:11:12;;;;;;;105.50;34.20;;;;;;;-0.70;84.70;101413.54;110945;1211;97680;-60
2023/02/16 07:13:37;;;;;;;99.30;33.80;;;;;;;-0.67;84.77;101407.43;110934;1211;139087;-60
2023/02/16 07:16:05;;;;;;;95.30;32.60;;;;;;;-0.64;84.81;101400.98;110940;1212;97777;-60
2023/02/16 07:18:32;;;;;;;115.70;35.40;;;;;;;-0.60;84.87;101407.70;110812;1206;99115;-60
2023/02/16 07:20:58;;;;;;;108.80;34.40;;;;;;;-0.56;84.86;101402.86;110737;1209;140513;-60
2023/02/16 07:23:23;;;;;;;98.00;33.80;;;;;;;-0.50;84.87;101396.96;110728;1212;97660;-60
2023/02/16 07:25:48;;;;;;;96.80;32.10;;;;;;;-0.47;84.91;101397.19;110785;1220;139264;-60
2023/02/16 07:28:14;;;;;;;95.90;32.50;;;;;;;-0.43;84.95;101398.81;110598;1211;97687;-60
2023/02/16 07:30:40;;;;;;;96.90;32.10;;;;;;;-0.40;85.02;101401.15;110759;1215;97530;-61
2023/02/16 07:33:05;;;;;;;99.70;33.00;;;;;;;-0.35;85.03;101399.45;110696;1210;140320;-60
2023/02/16 07:35:32;;;;;;;86.60;31.00;;;;;;;-0.29;85.00;101397.24;110768;1207;97605;-61
2023/02/16 07:37:57;;;;;;;89.40;32.30;;;;;;;-0.23;85.15;101400.83;110686;1210;140402;-60
2023/02/16 07:40:23;;;;;;;91.20;31.50;;;;;;;-0.17;85.11;101406.17;110666;1209;97608;-60
2023/02/16 07:42:48;;;;;;;81.30;29.00;;;;;;;-0.12;85.12;101406.59;110563;1209;99599;-60
2023/02/16 07:45:14;;;;;;;98.50;32.20;;;;;;;-0.06;85.19;101402.09;110790;1212;142400;-60
2023/02/16 07:47:39;;;;;;;97.30;42.20;;;;;;;0.00;85.23;101400.23;110770;1208;97669;-60
2023/02/16 07:50:05;;;;;;;117.30;52.50;;;;;;;0.08;85.23;101403.98;110674;1212;139542;-61
2023/02/16 07:52:31;;;;;;;121.70;52.70;;;;;;;0.14;85.28;101403.88;110742;1206;97584;-61
2023/02/16 07:54:57;;;;;;;89.70;33.20;;;;;;;0.21;85.26;101401.48;110762;1210;139762;-60
2023/02/16 07:57:24;;;;;;;86.80;29.80;;;;;;;0.26;85.45;101400.67;110834;1212;97570;-60
2023/02/16 07:59:51;;;;;;;84.80;29.10;;;;;;;0.33;85.45;101404.27;110841;1220;97703;-60
2023/02/16 08:02:18;;;;;;;84.80;29.90;;;;;;;0.40;85.54;101399.77;110737;1206;139877;-60
2023/02/16 08:04:44;;;;;;;90.50;31.70;;;;;;;0.47;85.47;101401.41;110845;1212;97661;-61
2023/02/16 08:07:11;;;;;;;90.50;31.00;;;;;;;0.53;85.52;101400.24;110751;1212;139610;-60
2023/02/16 08:09:37;;;;;;;86.60;29.20;;;;;;;0.58;85.62;101399.24;110897;1209;97620;-60
2023/02/16 08:12:02;;;;;;;78.10;29.00;;;;;;;0.64;85.63;101394.73;110914;1210;97678;-60
2023/02/16 08:14:27;;;;;;;79.80;28.20;;;;;;;0.71;85.70;101393.55;110772;1212;140084;-60
2023/02/16 08:16:53;;;;;;;86.90;28.60;;;;;;;0.78;85.82;101400.64;110889;1206;97761;-61
2023/02/16 08:19:18;;;;;;;77.10;27.00;;;;;;;0.83;85.72;101401.92;110715;1212;139295;-60
2023/02/16 08:21:48;;;;;;;81.60;30.60;;;;;;;0.89;85.81;101400.73;110863;1206;97645;-60
2023/02/16 08:24:13;;;;;;;74.80;28.10;;;;;;;0.96;85.88;101398.69;110779;1206;96866;-61
2023/02/16 08:26:41;;;;;;;80.00;27.80;;;;;;;1.05;85.78;101402.27;110751;1206;139959;-60
2023/02/16 08:29:14;;;;;;;74.90;28.50;;;;;;;1.13;85.93;101403.04;110925;1207;96434;-61
2023/02/16 08:31:40;;;;;;;73.30;25.60;;;;;;;1.19;85.77;101411.00;110737;1206;140252;-61
2023/02/16 08:34:06;;;;;;;84.40;28.70;;;;;;;1.23;85.72;101410.50;111053;1207;97679;-60
2023/02/16 08:36:37;;;;;;;83.40;29.40;;;;;;;1.27;85.84;101410.52;110893;1227;97559;-60
2023/02/16 08:39:20;;;;;;;81.30;27.20;;;;;;;1.32;85.92;101410.91;111039;1206;138662;-61
2023/02/16 08:41:47;;;;;;;80.40;30.80;;;;;;;1.35;85.80;101418.15;110933;1212;100136;-60
2023/02/16 08:44:14;;;;;;;68.60;25.30;;;;;;;1.36;85.80;101423.27;110955;1206;139163;-60
2023/02/16 08:46:42;;;;;;;73.60;28.00;;;;;;;1.36;85.63;101416.92;110848;1211;97654;-61
2023/02/16 08:49:10;;;;;;;73.80;26.30;;;;;;;1.37;85.71;101409.54;110785;1212;139800;-60
2023/02/16 08:51:40;;;;;;;68.20;25.20;;;;;;;1.40;86.03;101408.50;111024;1210;111604;-62
2023/02/16 08:54:09;;;;;;;76.10;29.20;;;;;;;1.46;85.88;101408.89;110777;1212;100177;-63
2023/02/16 08:56:35;;;;;;;74.40;28.00;;;;;;;1.52;85.98;101411.39;110634;1206;139852;-63
2023/02/16 08:59:01;;;;;;;67.40;26.80;;;;;;;1.56;85.92;101410.00;110859;1211;97578;-61
2023/02/16 09:01:26;;;;;;;68.30;26.90;;;;;;;1.61;85.97;101414.79;110913;1206;138843;-61
2023/02/16 09:03:53;;;;;;;65.70;23.70;;;;;;;1.66;85.89;101410.77;110878;1212;97677;-63
2023/02/16 09:06:21;;;;;;;67.90;26.00;;;;;;;1.69;85.65;101413.77;110772;1206;97587;-61
2023/02/16 09:08:56;;;;;;;63.00;24.60;;;;;;;1.72;85.85;101417.66;110656;1212;138536;-62
2023/02/16 09:11:22;;;;;;;63.20;23.80;;;;;;;1.74;85.84;101420.84;110884;1209;97712;-62
2023/02/16 09:13:48;;;;;;;70.90;26.90;;;;;;;1.79;85.62;101425.45;110650;1210;139011;-63
2023/02/16 09:16:19;;;;;;;67.80;26.90;;;;;;;1.85;85.69;101416.14;110814;1206;98411;-62
2023/02/16 09:18:46;;;;;;;60.20;25.30;;;;;;;1.94;85.84;101425.70;110920;1206;110083;-61
2023/02/16 09:21:14;;;;;;;71.80;25.90;;;;;;;2.00;85.56;101429.95;110854;1206;140592;-61
2023/02/16 09:23:41;;;;;;;69.80;27.00;;;;;;;2.07;85.75;101433.33;111026;1210;99468;-61
2023/02/16 09:26:08;;;;;;;79.50;27.90;;;;;;;2.14;85.74;101434.77;110985;1210;140719;-61
2023/02/16 09:28:38;;;;;;;64.30;25.70;;;;;;;2.22;85.74;101431.98;111145;1212;96862;-61
2023/02/16 09:31:11;;;;;;;74.10;25.60;;;;;;;2.33;85.73;101431.30;110788;1207;138697;-61
2023/02/16 09:33:39;;;;;;;70.90;26.20;;;;;;;2.42;85.59;101430.45;111028;1211;97683;-61
2023/02/16 09:36:06;;;;;;;66.60;25.60;;;;;;;2.47;85.56;101427.46;111218;1207;97666;-60
2023/02/16 09:38:32;;;;;;;70.40;27.30;;;;;;;2.51;85.39;101423.05;110812;1212;140839;-60
2023/02/16 09:40:59;;;;;;;58.70;23.60;;;;;;;2.61;85.70;101426.94;110921;1212;97616;-61
2023/02/16 09:43:38;;;;;;;60.70;23.90;;;;;;;2.69;85.40;101427.46;110724;1219;140885;-61
2023/02/16 09:46:10;;;;;;;68.40;26.50;;;;;;;2.75;85.49;101424.48;110874;1206;96943;-60
2023/02/16 09:48:44;;;;;;;61.90;24.50;;;;;;;2.82;85.27;101420.77;111348;1211;96308;-62
2023/02/16 09:51:18;;;;;;;61.10;25.60;;;;;;;2.85;85.09;101416.89;110577;1210;140336;-62
2023/02/16 09:53:53;;;;;;;59.50;23.70;;;;;;;2.86;85.05;101422.36;110836;1212;100133;-62
2023/02/16 09:56:38;;;;;;;68.50;25.20;;;;;;;2.90;84.97;101417.77;110655;1212;139128;-60
2023/02/16 09:59:13;;;;;;;64.90;24.50;;;;;;;2.99;85.24;101413.90;110858;1206;97555;-63
2023/02/16 10:01:59;;;;;;;61.90;25.30;;;;;;;3.03;84.96;101416.72;110863;1210;139420;-63
2023/02/16 10:04:58;;;;;;;64.20;24.20;;;;;;;3.07;84.86;101408.24;110925;1211;110238;-63
2023/02/16 10:07:55;;;;;;;66.30;23.60;;;;;;;3.11;84.71;101406.66;110725;1207;140701;-63
2023/02/16 10:10:24;;;;;;;66.60;25.30;;;;;;;3.16;84.65;101400.65;110853;1211;107819;-63
2023/02/16 10:12:57;;;;;;;64.90;25.40;;;;;;;3.25;84.91;101392.50;111014;1212;97565;-62
2023/02/16 10:15:28;;;;;;;63.10;26.20;;;;;;;3.33;84.65;101391.26;110878;1212;97757;-61
2023/02/16 10:18:07;;;;;;;56.50;23.70;;;;;;;3.42;84.52;101387.36;110935;1208;110621;-61
2023/02/16 10:20:42;;;;;;;65.20;25.60;;;;;;;3.52;84.81;101389.63;110692;1206;139802;-62
2023/02/16 10:23:17;;;;;;;64.70;24.50;;;;;;;3.60;84.58;101395.61;110979;1209;106265;-61
2023/02/16 10:25:54;;;;;;;59.80;25.70;;;;;;;3.65;84.48;101392.95;110775;1212;139603;-61
2023/02/16 10:28:31;;;;;;;49.40;22.00;;;;;;;3.69;84.49;101393.83;110788;1210;98041;-62
2023/02/16 10:31:01;;;;;;;57.40;20.60;;;;;;;3.74;84.17;101399.81;110815;1206;140527;-63
2023/02/16 10:33:39;;;;;;;60.40;24.40;;;;;;;3.80;84.02;101390.95;110821;1212;100266;-62
2023/02/16 10:36:29;;;;;;;61.80;24.80;;;;;;;3.88;84.01;101389.86;110798;1212;108581;-62
2023/02/16 10:39:21;;;;;;;59.00;23.40;;;;;;;3.96;83.77;101391.06;110698;1206;139914;-63
2023/02/16 10:42:02;;;;;;;60.30;24.30;;;;;;;3.99;83.85;101387.16;110968;1206;96039;-62
2023/02/16 10:44:39;;;;;;;66.80;25.00;;;;;;;4.05;83.70;101381.65;110711;1207;139508;-63
2023/02/16 10:47:17;;;;;;;61.30;23.00;;;;;;;4.13;84.06;101375.59;111040;1206;99483;-61
2023/02/16 10:49:43;;;;;;;56.00;23.60;;;;;;;4.22;83.90;101380.32;110538;1209;140099;-62
2023/02/16 10:52:10;;;;;;;55.30;23.20;;;;;;;4.29;83.64;101382.05;110782;1208;97563;-62
2023/02/16 10:54:35;;;;;;;56.50;25.30;;;;;;;4.32;83.78;101379.73;110798;1212;98046;-62
2023/02/16 10:57:04;;;;;;;56.70;23.30;;;;;;;4.38;83.44;101379.16;110828;1206;139203;-62
2023/02/16 10:59:42;;;;;;;52.80;22.70;;;;;;;4.42;83.30;101373.65;110902;1206;108560;-62
2023/02/16 11:02:19;;;;;;;52.90;22.20;;;;;;;4.45;83.48;101368.33;110763;1206;139678;-61
2023/02/16 11:04:47;;;;;;;54.90;22.70;;;;;;;4.52;83.41;101365.63;110958;1210;97755;-63
2023/02/16 11:07:19;;;;;;;55.60;23.80;;;;;;;4.58;83.41;101363.45;110766;1211;138662;-63
2023/02/16 11:09:49;;;;;;;54.60;23.20;;;;;;;4.63;83.33;101361.29;110839;1210;101102;-62
2023/02/16 11:12:31;;;;;;;47.40;21.40;;;;;;;4.72;83.08;101360.52;110843;1211;109169;-62
2023/02/16 11:14:59;;;;;;;;;;;;;;;4.78;83.07;101360.30;110814;1212;139189;-62
2023/02/16 11:17:25;;;;;;;51.40;20.80;;;;;;;4.88;83.16;101362.86;110997;1210;97656;-62
2023/02/16 11:20:08;;;;;;;58.70;23.70;;;;;;;5.00;83.07;101360.63;110797;1206;140156;-64
2023/02/16 11:22:36;;;;;;;51.00;21.20;;;;;;;5.04;82.83;101353.69;110900;1212;100231;-61
2023/02/16 11:25:20;;;;;;;54.10;22.50;;;;;;;5.04;82.61;101349.09;110859;1212;140043;-61
2023/02/16 11:28:00;;;;;;;51.80;23.10;;;;;;;5.13;82.92;101347.40;110939;1206;97556;-62
2023/02/16 11:30:37;;;;;;;55.80;21.70;;;;;;;5.26;82.68;101342.98;110852;1206;97686;-60
2023/02/16 11:33:19;;;;;;;58.00;23.00;;;;;;;5.36;82.73;101340.93;110723;1206;139914;-62
2023/02/16 11:35:45;;;;;;;56.00;22.80;;;;;;;5.55;82.84;101338.23;110926;1210;100047;-60
2023/02/16 11:38:33;;;;;;;47.80;21.10;;;;;;;5.72;82.81;101325.79;110770;1212;138398;-60
2023/02/16 11:41:00;;;;;;;61.10;24.60;;;;;;;5.86;82.67;101328.44;111008;1206;97641;-60
2023/02/16 11:43:31;;;;;;;52.50;23.50;;;;;;;5.93;82.42;101330.52;110808;1209;140415;-62
2023/02/16 11:46:00;;;;;;;60.50;24.20;;;;;;;5.91;82.16;101333.20;110804;1208;111150;-62
2023/02/16 11:48:28;;;;;;;48.00;21.40;;;;;;;5.89;81.75;101331.27;110801;1208;100158;-61